Terminal Aerodrome Forecast
Issued by NWS Jackson, MS

Home | Current Version | Previous Version | Text Only | Print | Product List | Glossary On
Versions: 1 2 3 4 5 6 7 8 9 10 11 12 13 14
782
FTUS44 KJAN 141120
TAFHBG
TAF
KHBG 141120Z 1412/1512 15008KT P6SM SCT050
     FM150500 16009KT P6SM OVC025
     FM150700 18005KT P6SM OVC015=

USA.gov is the U.S. government's official web portal to all federal, state and local government web resources and services.